C83

Byron Airport

Byron, California, USA
METAR KC83 210315Z AUTO 21014G19KT 10SM CLR 18/07 A3008 RMK AO2
Observed Flight Rules
Apr-21 @ 03:15 UTC (30 minutes ago) Visual Flight Rules
Wind Visibility Clouds
210° at 14 knots
 Gusting to 19 knots
10 miles
  • Clear skies
Temperatures Readings
Current 18°C / 64°F
Dewpoint 7°C / 45°F
Humidity 49%
Altimeter 30.08" Hg
Pressure 1019 hPa
Elevation 24
METAR KC83 210315Z AUTO 21014G19KT 10SM CLR 18/07 A3008 RMK AO2
Observed Flight Rules
Apr-21 @ 03:15 UTC
(30 minutes ago)
VFR
Wind Visibility
210° at 14 knots
 Gusting to 19 knots
10 miles
Clouds
  • Clear skies
Temperature Dewpoint
18°C / 64°F 7°C / 45°F
Humidity Altimeter Pressure
49% 30.08" Hg 1019 hPa